Time;durP1;ratioP1;P1;durP2;ratioP2;P2;SDS_P1;SDS_P2;PMS_P1;PMS_P2;Temp;Humidity;BMP_temperature;BMP_pressure;BME280_temperature;BME280_humidity;BME280_pressure;Samples;Min_cycle;Max_cycle;Signal;HPM_P1;HPM_P2
2022/12/24 00:02:17;;;;;;;;;;;3.60;99.90;;;;;;5034463;28;19913;-70
2022/12/24 00:04:42;;;;;;;;;;;3.50;99.90;;;;;;5033216;28;20008;-70
2022/12/24 00:07:08;;;;;;;;;;;3.50;99.90;;;;;;5034584;28;19910;-70
2022/12/24 00:09:33;;;;;;;;;;;3.50;99.90;;;;;;5034315;28;19917;-70
2022/12/24 00:11:59;;;;;;;;;;;3.50;99.90;;;;;;5034534;28;19914;-70
2022/12/24 00:14:24;;;;;;;;;;;3.40;99.90;;;;;;5033905;28;19925;-70
2022/12/24 00:16:50;;;;;;;;;;;3.40;99.90;;;;;;5034733;28;19992;-70
2022/12/24 00:19:15;;;;;;;;;;;3.40;99.90;;;;;;5034107;28;19913;-70
2022/12/24 00:21:41;;;;;;;;;;;3.40;99.90;;;;;;5034161;28;19913;-70
2022/12/24 00:24:07;;;;;;;;;;;3.40;99.90;;;;;;5034090;28;20358;-70
2022/12/24 00:26:33;;;;;;;;;;;3.40;99.90;;;;;;5034362;28;19909;-70
2022/12/24 00:28:58;;;;;;;;;;;3.40;99.90;;;;;;5033939;28;20258;-70
2022/12/24 00:31:24;;;;;;;;;;;3.40;99.90;;;;;;5034320;28;19936;-70
2022/12/24 00:33:50;;;;;;;;;;;3.40;99.90;;;;;;5034012;28;19952;-70
2022/12/24 00:36:15;;;;;;;;;;;3.40;99.90;;;;;;5033950;28;20329;-70
2022/12/24 00:38:41;;;;;;;;;;;3.40;99.90;;;;;;5034168;28;20250;-70
2022/12/24 00:41:23;;;;;;;;;;;3.50;99.90;;;;;;5033345;28;20003;-70
2022/12/24 00:43:52;;;;;;;;;;;3.50;99.90;;;;;;5034351;28;19920;-70
2022/12/24 00:46:18;;;;;;;;;;;3.40;99.90;;;;;;5034127;28;19976;-70
2022/12/24 00:48:43;;;;;;;;;;;3.40;99.90;;;;;;5033675;28;19925;-70
2022/12/24 00:51:09;;;;;;;;;;;3.50;99.90;;;;;;5033769;28;20391;-70
2022/12/24 00:53:35;;;;;;;;;;;3.40;99.90;;;;;;5033657;28;19980;-70
2022/12/24 00:56:00;;;;;;;;;;;3.40;99.90;;;;;;5033777;28;19927;-70
2022/12/24 00:58:26;;;;;;;;;;;3.40;99.90;;;;;;5033648;28;19913;-70
2022/12/24 01:00:51;;;;;;;;;;;3.30;99.90;;;;;;5033691;28;20280;-70
2022/12/24 01:03:17;;;;;;;;;;;3.30;99.90;;;;;;5033717;28;20023;-70
2022/12/24 01:05:42;;;;;;;;;;;3.40;99.90;;;;;;5033655;28;19920;-70
2022/12/24 01:08:08;;;;;;;;;;;3.40;99.90;;;;;;5033659;28;19917;-70
2022/12/24 01:10:33;;;;;;;;;;;3.50;99.90;;;;;;5034173;28;19967;-70
2022/12/24 01:13:02;;;;;;;;;;;3.50;99.90;;;;;;5032363;28;20373;-70
2022/12/24 01:15:28;;;;;;;;;;;3.50;99.90;;;;;;5033764;28;19913;-70
2022/12/24 01:17:53;;;;;;;;;;;3.50;99.90;;;;;;5033524;28;20392;-70
2022/12/24 01:20:19;;;;;;;;;;;3.40;99.90;;;;;;5033572;28;20438;-70
2022/12/24 01:22:44;;;;;;;;;;;3.40;99.90;;;;;;5033579;28;19918;-71
2022/12/24 01:25:10;;;;;;;;;;;3.40;99.90;;;;;;5033851;28;19914;-71
2022/12/24 01:27:36;;;;;;;;;;;3.30;99.90;;;;;;5037141;28;19916;-70
2022/12/24 01:30:01;;;;;;;;;;;3.20;99.90;;;;;;5037627;28;19920;-70
2022/12/24 01:32:27;;;;;;;;;;;3.20;99.90;;;;;;5037317;28;19917;-70
2022/12/24 01:34:53;;;;;;;;;;;3.10;99.90;;;;;;5037522;28;19963;-70
2022/12/24 01:37:18;;;;;;;;;;;3.10;99.90;;;;;;5037104;28;19914;-70
2022/12/24 01:39:44;;;;;;;;;;;3.10;99.90;;;;;;5037407;28;19917;-70
2022/12/24 01:45:19;;;;;;;;;;;3.00;99.90;;;;;;5037096;28;19916;-70
2022/12/24 01:47:44;;;;;;;;;;;3.00;99.90;;;;;;5036802;28;19917;-71
2022/12/24 01:50:15;;;;;;;;;;;2.90;99.90;;;;;;5037218;28;19983;-70
2022/12/24 01:52:41;;;;;;;;;;;2.90;99.90;;;;;;5036808;28;19916;-71
2022/12/24 01:55:09;;;;;;;;;;;2.90;99.90;;;;;;5037406;28;19967;-70
2022/12/24 01:57:40;;;;;;;;;;;2.90;99.90;;;;;;5036756;28;19920;-70
2022/12/24 02:00:08;;;;;;;;;;;2.90;99.90;;;;;;5036783;28;20407;-70
2022/12/24 02:02:34;;;;;;;;;;;2.90;99.90;;;;;;5037031;28;19952;-71
2022/12/24 02:05:13;;;;;;;;;;;2.90;99.90;;;;;;5036741;28;19909;-70
2022/12/24 02:07:39;;;;;;;;;;;2.90;99.90;;;;;;5037174;28;19951;-71
2022/12/24 02:10:07;;;;;;;;;;;2.90;99.90;;;;;;5036500;28;19982;-71
2022/12/24 02:12:34;;;;;;;;;;;2.90;99.90;;;;;;5036780;28;19909;-71
2022/12/24 02:15:00;;;;;;;;;;;2.90;99.90;;;;;;5036494;28;19909;-71
2022/12/24 02:17:30;;;;;;;;;;;2.90;99.90;;;;;;5036383;28;19920;-70
2022/12/24 02:20:13;;;;;;;;;;;2.90;99.90;;;;;;5036390;28;19909;-70
2022/12/24 02:22:50;;;;;;;;;;;2.90;99.90;;;;;;5036966;28;19909;-70
2022/12/24 02:25:34;;;;;;;;;;;2.90;99.90;;;;;;5036346;28;20003;-70
2022/12/24 02:28:20;;;;;;;;;;;2.90;99.90;;;;;;5036157;28;19909;-70
2022/12/24 02:31:09;;;;;;;;;;;2.90;99.90;;;;;;5036276;28;19952;-70
2022/12/24 02:33:39;;;;;;;;;;;2.90;99.90;;;;;;5035646;28;19963;-70
2022/12/24 02:36:16;;;;;;;;;;;2.90;99.90;;;;;;5036091;28;20396;-70
2022/12/24 02:38:51;;;;;;;;;;;2.90;99.90;;;;;;5035040;28;19909;-70
2022/12/24 02:41:19;;;;;;;;;;;2.90;99.90;;;;;;5036267;28;19988;-71
2022/12/24 02:43:45;;;;;;;;;;;2.80;99.90;;;;;;5035971;28;19913;-70
2022/12/24 02:46:13;;;;;;;;;;;2.80;99.90;;;;;;5036265;28;20285;-70
2022/12/24 02:48:40;;;;;;;;;;;2.90;99.90;;;;;;5035790;28;19967;-70
2022/12/24 02:51:08;;;;;;;;;;;2.90;99.90;;;;;;5035868;28;19921;-70
2022/12/24 02:53:34;;;;;;;;;;;2.80;99.90;;;;;;5036269;28;19971;-69
2022/12/24 02:56:10;;;;;;;;;;;2.80;99.90;;;;;;5036013;28;19910;-69
2022/12/24 02:58:35;;;;;;;;;;;2.80;99.90;;;;;;5035653;28;20277;-69
2022/12/24 03:01:16;;;;;;;;;;;2.80;99.90;;;;;;5035623;28;19909;-69
2022/12/24 03:04:00;;;;;;;;;;;2.80;99.90;;;;;;5035899;28;19909;-69
2022/12/24 03:06:41;;;;;;;;;;;2.70;99.90;;;;;;5036005;28;19992;-69
2022/12/24 03:09:13;;;;;;;;;;;2.70;99.90;;;;;;5035345;28;19963;-69
2022/12/24 03:11:43;;;;;;;;;;;2.70;99.90;;;;;;5035755;28;20363;-69
2022/12/24 03:14:09;;;;;;;;;;;2.70;99.90;;;;;;5034127;28;19916;-69
2022/12/24 03:16:35;;;;;;;;;;;2.80;99.90;;;;;;5035344;28;19917;-69
2022/12/24 03:19:00;;;;;;;;;;;2.70;99.90;;;;;;5035269;28;19913;-69
2022/12/24 03:21:34;;;;;;;;;;;2.70;99.90;;;;;;5035276;28;20007;-69
2022/12/24 03:24:00;;;;;;;;;;;2.70;99.90;;;;;;5035183;28;19909;-69
2022/12/24 03:26:27;;;;;;;;;;;2.70;99.90;;;;;;5035736;28;19917;-69
2022/12/24 03:28:53;;;;;;;;;;;2.70;99.90;;;;;;5034982;28;19944;-69
2022/12/24 03:31:19;;;;;;;;;;;2.70;99.90;;;;;;5035050;28;20010;-69
2022/12/24 03:33:45;;;;;;;;;;;2.70;99.90;;;;;;5035275;28;19917;-69
2022/12/24 03:36:10;;;;;;;;;;;2.70;99.90;;;;;;5035009;28;19960;-69
2022/12/24 03:38:36;;;;;;;;;;;2.80;99.90;;;;;;5035050;28;19944;-69
2022/12/24 03:41:01;;;;;;;;;;;2.70;99.90;;;;;;5035133;28;20360;-69
2022/12/24 03:43:27;;;;;;;;;;;2.80;99.90;;;;;;5035092;28;19913;-69
2022/12/24 03:45:53;;;;;;;;;;;2.70;99.90;;;;;;5034760;28;20379;-69
2022/12/24 03:48:18;;;;;;;;;;;2.80;99.90;;;;;;5034502;28;19920;-69
2022/12/24 03:50:44;;;;;;;;;;;2.80;99.90;;;;;;5034473;28;19923;-69
2022/12/24 03:53:09;;;;;;;;;;;2.70;99.90;;;;;;5034618;28;19924;-69
2022/12/24 03:55:35;;;;;;;;;;;2.70;99.90;;;;;;5034579;28;19913;-69
2022/12/24 03:58:00;;;;;;;;;;;2.70;99.90;;;;;;5035288;28;19982;-69
2022/12/24 04:00:26;;;;;;;;;;;2.60;99.90;;;;;;5034479;28;20454;-69
2022/12/24 04:02:52;;;;;;;;;;;2.60;99.90;;;;;;5034415;28;20002;-69
2022/12/24 04:05:18;;;;;;;;;;;2.50;99.90;;;;;;5034436;28;19912;-69
2022/12/24 04:07:44;;;;;;;;;;;2.50;99.90;;;;;;5034264;28;20082;-69
2022/12/24 04:10:10;;;;;;;;;;;2.50;99.90;;;;;;5034599;28;19920;-69
2022/12/24 04:12:36;;;;;;;;;;;2.50;99.90;;;;;;5034295;28;20427;-69
2022/12/24 04:15:02;;;;;;;;;;;2.50;99.90;;;;;;5034563;28;19920;-69
2022/12/24 04:17:27;;;;;;;;;;;2.50;99.90;;;;;;5034240;28;20417;-69
2022/12/24 04:19:53;;;;;;;;;;;2.50;99.90;;;;;;5034197;28;19913;-69
2022/12/24 04:22:18;;;;;;;;;;;2.50;99.90;;;;;;5034273;28;19979;-69
2022/12/24 04:24:44;;;;;;;;;;;2.60;99.90;;;;;;5034140;28;20266;-69
2022/12/24 04:27:10;;;;;;;;;;;2.60;99.90;;;;;;5034038;28;19936;-69
2022/12/24 04:29:35;;;;;;;;;;;2.60;99.90;;;;;;5033994;28;19921;-69
2022/12/24 04:32:01;;;;;;;;;;;2.60;99.90;;;;;;5034322;28;19913;-69
2022/12/24 04:34:26;;;;;;;;;;;2.60;99.90;;;;;;5034545;28;19913;-69
2022/12/24 04:36:52;;;;;;;;;;;2.60;99.90;;;;;;5016246;28;19913;-69
2022/12/24 04:39:17;;;;;;;;;;;2.60;99.90;;;;;;5034369;28;19913;-69
2022/12/24 04:41:43;;;;;;;;;;;2.60;99.90;;;;;;5033936;28;19919;-69
2022/12/24 04:44:09;;;;;;;;;;;2.60;99.90;;;;;;5033864;28;20432;-69
2022/12/24 04:46:34;;;;;;;;;;;2.60;99.90;;;;;;5033881;28;19920;-69
2022/12/24 04:49:00;;;;;;;;;;;2.60;99.90;;;;;;5033644;28;20007;-69
2022/12/24 04:51:26;;;;;;;;;;;2.60;99.90;;;;;;5033780;28;19963;-69
2022/12/24 04:53:52;;;;;;;;;;;2.60;99.90;;;;;;5033685;28;19924;-69
2022/12/24 04:56:19;;;;;;;;;;;2.60;99.90;;;;;;5033714;28;19913;-69
2022/12/24 04:58:45;;;;;;;;;;;2.60;99.90;;;;;;5033637;28;19913;-69
2022/12/24 05:01:12;;;;;;;;;;;2.60;99.90;;;;;;5035540;28;19963;-69
2022/12/24 05:03:38;;;;;;;;;;;2.60;99.90;;;;;;5037890;28;19909;-69
2022/12/24 05:06:04;;;;;;;;;;;2.60;99.90;;;;;;5037850;28;19915;-69
2022/12/24 05:08:30;;;;;;;;;;;2.70;99.90;;;;;;5037677;28;19913;-69
2022/12/24 05:10:56;;;;;;;;;;;2.70;99.90;;;;;;5037788;28;19917;-69
2022/12/24 05:13:22;;;;;;;;;;;2.70;99.90;;;;;;5037759;28;20020;-69
2022/12/24 05:15:48;;;;;;;;;;;2.70;99.90;;;;;;5037830;28;19944;-69
2022/12/24 05:18:13;;;;;;;;;;;2.80;99.90;;;;;;5037490;28;20373;-69
2022/12/24 05:20:41;;;;;;;;;;;2.80;99.90;;;;;;5037544;28;20270;-69
2022/12/24 05:28:36;;;;;;;;;;;2.80;99.90;;;;;;5037468;28;19964;-69
2022/12/24 05:31:02;;;;;;;;;;;2.80;99.90;;;;;;5037575;28;19914;-69
2022/12/24 05:33:27;;;;;;;;;;;2.80;99.90;;;;;;5037853;28;19920;-69
2022/12/24 05:35:53;;;;;;;;;;;2.80;99.90;;;;;;5037254;28;19920;-69
2022/12/24 05:38:19;;;;;;;;;;;2.80;99.90;;;;;;5037675;28;19913;-69
2022/12/24 05:40:45;;;;;;;;;;;2.80;99.90;;;;;;5037198;28;20439;-69
2022/12/24 05:43:11;;;;;;;;;;;2.80;99.90;;;;;;5037149;28;19909;-69
2022/12/24 05:45:36;;;;;;;;;;;2.70;99.90;;;;;;5037022;28;19967;-69
2022/12/24 05:48:02;;;;;;;;;;;2.70;99.90;;;;;;5037658;28;19921;-69
2022/12/24 05:50:27;;;;;;;;;;;2.70;99.90;;;;;;5036880;28;19921;-69
2022/12/24 05:52:53;;;;;;;;;;;2.70;99.90;;;;;;5036952;28;19921;-69
2022/12/24 05:55:18;;;;;;;;;;;2.70;99.90;;;;;;5037179;28;19913;-69
2022/12/24 05:57:44;;;;;;;;;;;2.70;99.90;;;;;;5036782;28;19924;-69
2022/12/24 06:00:10;;;;;;;;;;;2.70;99.90;;;;;;5037094;28;19923;-69
2022/12/24 06:02:35;;;;;;;;;;;2.70;99.90;;;;;;5036687;28;19913;-69
2022/12/24 06:05:01;;;;;;;;;;;2.70;99.90;;;;;;5037035;28;19913;-69
2022/12/24 06:07:26;;;;;;;;;;;2.70;99.90;;;;;;5036601;28;19913;-69
2022/12/24 06:09:52;;;;;;;;;;;2.70;99.90;;;;;;5036905;28;20024;-69
2022/12/24 06:12:18;;;;;;;;;;;2.70;99.90;;;;;;5036477;28;19909;-69
2022/12/24 06:14:43;;;;;;;;;;;2.70;99.90;;;;;;5036779;28;19952;-69
2022/12/24 06:17:09;;;;;;;;;;;2.70;99.90;;;;;;5036341;28;19913;-69
2022/12/24 06:19:34;;;;;;;;;;;2.70;99.90;;;;;;5036661;28;19917;-69
2022/12/24 06:22:00;;;;;;;;;;;2.70;99.90;;;;;;5036383;28;19974;-70
2022/12/24 06:24:25;;;;;;;;;;;2.70;99.90;;;;;;5036675;28;19940;-69
2022/12/24 06:26:51;;;;;;;;;;;2.70;99.90;;;;;;5036295;28;19917;-70
2022/12/24 06:29:16;;;;;;;;;;;2.70;99.90;;;;;;5036105;28;19952;-70
2022/12/24 06:31:42;;;;;;;;;;;2.70;99.90;;;;;;5036462;28;19913;-70
2022/12/24 06:34:08;;;;;;;;;;;2.70;99.90;;;;;;5036110;28;19920;-69
2022/12/24 06:36:33;;;;;;;;;;;2.70;99.90;;;;;;5036448;28;20332;-70
2022/12/24 06:38:59;;;;;;;;;;;2.70;99.90;;;;;;5035947;28;20012;-69
2022/12/24 06:41:24;;;;;;;;;;;2.60;99.90;;;;;;5035995;28;20324;-70
2022/12/24 06:43:51;;;;;;;;;;;2.60;99.90;;;;;;5036250;28;20273;-70
2022/12/24 06:46:17;;;;;;;;;;;2.60;99.90;;;;;;5036176;28;20376;-70
2022/12/24 06:48:44;;;;;;;;;;;2.70;99.90;;;;;;5035779;28;19921;-69
2022/12/24 06:51:10;;;;;;;;;;;2.70;99.90;;;;;;5036111;28;19915;-70
2022/12/24 06:53:35;;;;;;;;;;;2.70;99.90;;;;;;5035779;28;20369;-70
2022/12/24 06:56:05;;;;;;;;;;;2.60;99.90;;;;;;5036285;28;19921;-70
2022/12/24 06:58:31;;;;;;;;;;;2.70;99.90;;;;;;5035673;28;19917;-70
2022/12/24 07:00:57;;;;;;;;;;;2.70;99.90;;;;;;5035722;28;19916;-69
2022/12/24 07:03:22;;;;;;;;;;;2.70;99.90;;;;;;5035626;28;19913;-70
2022/12/24 07:05:48;;;;;;;;;;;2.70;99.90;;;;;;5034374;28;20258;-70
2022/12/24 07:08:13;;;;;;;;;;;2.70;99.90;;;;;;5035382;28;20296;-70
2022/12/24 07:10:39;;;;;;;;;;;2.70;99.90;;;;;;5035548;28;20266;-70
2022/12/24 07:13:04;;;;;;;;;;;2.70;99.90;;;;;;5035763;28;20333;-70
2022/12/24 07:15:30;;;;;;;;;;;2.80;99.90;;;;;;5034196;28;19920;-70
2022/12/24 07:17:55;;;;;;;;;;;2.80;99.90;;;;;;5035420;28;19920;-70
2022/12/24 07:20:21;;;;;;;;;;;2.80;99.90;;;;;;5035872;28;20358;-70
2022/12/24 07:22:46;;;;;;;;;;;2.90;99.90;;;;;;5035163;28;20411;-70
2022/12/24 07:25:12;;;;;;;;;;;2.90;99.90;;;;;;5034649;28;19948;-70
2022/12/24 07:27:38;;;;;;;;;;;2.90;99.90;;;;;;5035121;28;19913;-70
2022/12/24 07:30:04;;;;;;;;;;;3.00;99.90;;;;;;5035070;28;19917;-70
2022/12/24 07:32:29;;;;;;;;;;;3.00;99.90;;;;;;5035320;28;20007;-71
2022/12/24 07:34:55;;;;;;;;;;;3.00;99.90;;;;;;5035009;28;19987;-70
2022/12/24 07:37:20;;;;;;;;;;;3.00;99.90;;;;;;5034909;28;19920;-70
2022/12/24 07:39:46;;;;;;;;;;;3.00;99.90;;;;;;5035489;28;20397;-70
2022/12/24 07:42:11;;;;;;;;;;;3.00;99.90;;;;;;5034836;28;20381;-70
2022/12/24 07:44:37;;;;;;;;;;;3.00;99.90;;;;;;5035073;28;19913;-70
2022/12/24 07:47:03;;;;;;;;;;;3.00;99.90;;;;;;5034656;28;20393;-70
2022/12/24 07:49:28;;;;;;;;;;;3.10;99.90;;;;;;5034714;28;19939;-69
2022/12/24 07:51:54;;;;;;;;;;;3.30;99.90;;;;;;5034806;28;20343;-70
2022/12/24 07:54:19;;;;;;;;;;;3.40;99.90;;;;;;5034697;28;19917;-70
2022/12/24 07:56:45;;;;;;;;;;;3.50;99.90;;;;;;5034582;28;20451;-69
2022/12/24 07:59:13;;;;;;;;;;;3.70;99.90;;;;;;5034555;28;19936;-70
2022/12/24 08:01:39;;;;;;;;;;;3.80;99.90;;;;;;5034521;28;20024;-70
2022/12/24 08:04:05;;;;;;;;;;;3.90;99.90;;;;;;5034816;28;20305;-70
2022/12/24 08:06:30;;;;;;;;;;;3.90;99.90;;;;;;5034432;28;19910;-70
2022/12/24 08:08:56;;;;;;;;;;;4.00;99.90;;;;;;5034343;28;19970;-70
2022/12/24 08:11:22;;;;;;;;;;;4.00;99.90;;;;;;5034729;28;20008;-70
2022/12/24 08:13:47;;;;;;;;;;;4.00;99.90;;;;;;5034356;28;19970;-70
2022/12/24 08:16:13;;;;;;;;;;;4.10;99.90;;;;;;5034576;28;19917;-70
2022/12/24 08:18:38;;;;;;;;;;;4.20;99.90;;;;;;5034104;28;19921;-70
2022/12/24 08:21:08;;;;;;;;;;;4.20;99.90;;;;;;5034253;28;19917;-69
2022/12/24 08:23:33;;;;;;;;;;;4.20;99.90;;;;;;5034491;28;19909;-70
2022/12/24 08:25:59;;;;;;;;;;;4.20;99.90;;;;;;5034106;28;19920;-70
2022/12/24 08:28:25;;;;;;;;;;;4.30;99.90;;;;;;5033911;28;19936;-69
2022/12/24 08:30:50;;;;;;;;;;;4.40;99.90;;;;;;5034112;28;19913;-69
2022/12/24 08:33:16;;;;;;;;;;;4.50;99.90;;;;;;5034318;28;19913;-70
2022/12/24 08:35:49;;;;;;;;;;;4.50;99.90;;;;;;5033141;28;19909;-70
2022/12/24 08:38:15;;;;;;;;;;;4.70;99.90;;;;;;5033888;28;19917;-69
2022/12/24 08:40:41;;;;;;;;;;;4.70;99.90;;;;;;5033912;28;19916;-69
2022/12/24 08:43:07;;;;;;;;;;;4.80;99.90;;;;;;5034528;28;19913;-70
2022/12/24 08:45:32;;;;;;;;;;;4.90;99.90;;;;;;5033884;28;19931;-70
2022/12/24 08:47:59;;;;;;;;;;;5.00;99.90;;;;;;5034084;28;19964;-69
2022/12/24 08:50:25;;;;;;;;;;;5.00;99.90;;;;;;5034050;28;19971;-69
2022/12/24 08:52:50;;;;;;;;;;;5.00;99.90;;;;;;5034480;28;20276;-70
2022/12/24 08:55:16;;;;;;;;;;;4.90;99.90;;;;;;5034634;28;19910;-69
2022/12/24 08:57:41;;;;;;;;;;;5.00;99.90;;;;;;5033703;28;19913;-69
2022/12/24 09:00:07;;;;;;;;;;;5.00;99.90;;;;;;5033984;28;19913;-69
2022/12/24 09:02:33;;;;;;;;;;;5.00;99.90;;;;;;5032431;28;19913;-69
2022/12/24 09:04:59;;;;;;;;;;;5.10;99.90;;;;;;5033693;28;19917;-70
2022/12/24 09:07:24;;;;;;;;;;;5.20;99.90;;;;;;5033889;28;20362;-70
2022/12/24 09:09:50;;;;;;;;;;;5.20;99.90;;;;;;5034109;28;19917;-69
2022/12/24 09:12:15;;;;;;;;;;;5.30;99.90;;;;;;5033728;28;19919;-70
2022/12/24 09:14:41;;;;;;;;;;;5.30;99.90;;;;;;5033928;28;19920;-69
2022/12/24 09:17:06;;;;;;;;;;;5.30;99.90;;;;;;5033558;28;19955;-70
2022/12/24 09:19:32;;;;;;;;;;;5.30;99.90;;;;;;5033609;28;19913;-70
2022/12/24 09:21:58;;;;;;;;;;;5.40;99.90;;;;;;5033880;28;20274;-70
2022/12/24 09:24:23;;;;;;;;;;;5.40;99.90;;;;;;5033539;28;19913;-70
2022/12/24 09:26:49;;;;;;;;;;;5.40;99.90;;;;;;5033525;28;19913;-70
2022/12/24 09:29:15;;;;;;;;;;;5.30;99.90;;;;;;5033383;28;19917;-69
2022/12/24 09:31:40;;;;;;;;;;;5.40;99.90;;;;;;5032286;28;20266;-70
2022/12/24 09:34:06;;;;;;;;;;;5.40;99.90;;;;;;5033459;28;19914;-69
2022/12/24 09:36:32;;;;;;;;;;;5.50;99.90;;;;;;5033723;28;20322;-69
2022/12/24 09:38:57;;;;;;;;;;;5.50;99.90;;;;;;5033314;28;19913;-69
2022/12/24 09:41:37;;;;;;;;;;;5.50;99.90;;;;;;5033358;28;19920;-70
2022/12/24 09:44:09;;;;;;;;;;;5.60;99.90;;;;;;5033540;28;20005;-70
2022/12/24 09:46:36;;;;;;;;;;;5.60;99.90;;;;;;5034090;28;19913;-69
2022/12/24 09:49:04;;;;;;;;;;;5.60;99.90;;;;;;5036920;28;20007;-70
2022/12/24 09:51:44;;;;;;;;;;;5.60;99.90;;;;;;5036992;28;19909;-69
2022/12/24 09:54:17;;;;;;;;;;;5.70;99.90;;;;;;5036935;28;19917;-70
2022/12/24 09:56:44;;;;;;;;;;;5.70;99.90;;;;;;5036870;28;19975;-70
2022/12/24 09:59:36;;;;;;;;;;;5.70;99.90;;;;;;5032672;28;20372;-69
2022/12/24 10:02:01;;;;;;;;;;;5.80;99.90;;;;;;5013949;28;19920;-70
2022/12/24 10:04:29;;;;;;;;;;;5.90;99.90;;;;;;5016928;28;20000;-70
2022/12/24 10:07:06;;;;;;;;;;;5.90;99.90;;;;;;5016925;28;20140;-70
2022/12/24 10:09:34;;;;;;;;;;;5.90;99.90;;;;;;5017423;28;20265;-70
2022/12/24 10:12:08;;;;;;;;;;;5.90;99.90;;;;;;5016854;28;19948;-70
2022/12/24 10:15:03;;;;;;;;;;;5.90;99.90;;;;;;5015572;28;20000;-70
2022/12/24 10:17:41;;;;;;;;;;;5.80;99.90;;;;;;5016053;28;19910;-70
2022/12/24 10:20:25;;;;;;;;;;;6.00;99.90;;;;;;5017257;28;20008;-70
2022/12/24 10:22:53;;;;;;;;;;;6.00;99.90;;;;;;5016614;28;20289;-70
2022/12/24 10:25:26;;;;;;;;;;;6.00;99.90;;;;;;5017098;28;19999;-70
2022/12/24 10:27:53;;;;;;;;;;;6.00;99.90;;;;;;5016454;28;20381;-70
2022/12/24 10:30:20;;;;;;;;;;;6.00;99.90;;;;;;5016983;28;19953;-70
2022/12/24 10:32:47;;;;;;;;;;;6.10;99.90;;;;;;5016437;28;19956;-70
2022/12/24 10:35:13;;;;;;;;;;;6.20;99.90;;;;;;5016398;28;19913;-71
2022/12/24 10:37:39;;;;;;;;;;;6.20;99.90;;;;;;5022887;28;19909;-70
2022/12/24 10:40:05;;;;;;;;;;;6.30;99.90;;;;;;5016292;28;19968;-70
2022/12/24 10:42:35;;;;;;;;;;;6.40;99.90;;;;;;5016197;28;19910;-70
2022/12/24 10:45:02;;;;;;;;;;;6.50;99.90;;;;;;5016271;28;20400;-70
2022/12/24 10:47:30;;;;;;;;;;;6.60;99.90;;;;;;5016306;28;19916;-70
2022/12/24 10:49:55;;;;;;;;;;;6.70;99.90;;;;;;5016126;28;19921;-70
2022/12/24 10:52:21;;;;;;;;;;;6.70;99.90;;;;;;5016235;28;19992;-70
2022/12/24 10:55:06;;;;;;;;;;;6.90;99.90;;;;;;5016110;28;20008;-70
2022/12/24 10:57:32;;;;;;;;;;;7.00;99.90;;;;;;5016262;28;19971;-70
2022/12/24 10:59:58;;;;;;;;;;;7.10;99.90;;;;;;5015307;28;19952;-70
2022/12/24 11:02:24;;;;;;;;;;;7.20;99.90;;;;;;5016489;28;19918;-70
2022/12/24 11:04:50;;;;;;;;;;;7.30;99.90;;;;;;5015856;28;19913;-70
2022/12/24 11:07:19;;;;;;;;;;;7.20;99.90;;;;;;5016355;28;19914;-70
2022/12/24 11:09:53;;;;;;;;;;;7.20;99.90;;;;;;5015980;28;19947;-70
2022/12/24 11:12:21;;;;;;;;;;;7.20;99.90;;;;;;5014824;28;19910;-70
2022/12/24 11:14:47;;;;;;;;;;;7.20;99.90;;;;;;5035110;28;19952;-70
2022/12/24 11:17:22;;;;;;;;;;;7.20;99.90;;;;;;5035531;28;19936;-70
2022/12/24 11:19:48;;;;;;;;;;;7.10;99.90;;;;;;5035481;28;20059;-70
2022/12/24 11:22:20;;;;;;;;;;;7.10;99.90;;;;;;5035008;28;20335;-70
2022/12/24 11:24:54;;;;;;;;;;;7.00;99.90;;;;;;5035534;28;19999;-70
2022/12/24 11:27:31;;;;;;;;;;;7.00;99.90;;;;;;5035205;28;20438;-70
2022/12/24 11:30:26;;;;;;;;;;;7.00;99.90;;;;;;5035068;28;19916;-70
2022/12/24 11:33:00;;;;;;;;;;;6.90;99.90;;;;;;5030441;28;19916;-71
2022/12/24 11:35:27;;;;;;;;;;;6.90;99.90;;;;;;5035022;28;19909;-71
2022/12/24 11:37:58;;;;;;;;;;;6.80;99.90;;;;;;5034988;28;20423;-71
2022/12/24 11:40:27;;;;;;;;;;;6.80;99.90;;;;;;5034934;28;20040;-70
2022/12/24 11:42:58;;;;;;;;;;;6.80;99.90;;;;;;5034952;28;19917;-71
2022/12/24 11:45:26;;;;;;;;;;;6.70;99.90;;;;;;5034873;28;19909;-71
2022/12/24 11:47:52;;;;;;;;;;;6.70;99.90;;;;;;5034242;28;19913;-70
2022/12/24 11:50:28;;;;;;;;;;;6.70;99.90;;;;;;5022431;28;19920;-70
2022/12/24 11:53:16;;;;;;;;;;;6.70;99.90;;;;;;5018466;28;20300;-70
2022/12/24 11:55:42;;;;;;;;;;;6.70;99.90;;;;;;5029443;28;19913;-71
2022/12/24 11:58:26;;;;;;;;;;;6.70;99.90;;;;;;5017460;28;19909;-70
2022/12/24 12:00:56;;;;;;;;;;;6.60;99.90;;;;;;5032921;28;19917;-70
2022/12/24 12:03:22;;;;;;;;;;;6.60;99.90;;;;;;5018200;28;19909;-70
2022/12/24 12:05:48;;;;;;;;;;;6.60;99.90;;;;;;5015069;28;19917;-71
2022/12/24 12:08:16;;;;;;;;;;;6.60;99.90;;;;;;5014583;28;19955;-71
2022/12/24 12:10:42;;;;;;;;;;;6.50;99.90;;;;;;5014480;28;19964;-71
2022/12/24 12:13:43;;;;;;;;;;;6.50;99.90;;;;;;5014886;28;20000;-71
2022/12/24 12:16:12;;;;;;;;;;;6.50;99.90;;;;;;5012996;28;20376;-70
2022/12/24 12:18:41;;;;;;;;;;;6.50;99.90;;;;;;5013256;28;20194;-70
2022/12/24 12:21:10;;;;;;;;;;;6.60;99.90;;;;;;5014499;28;19909;-71
2022/12/24 12:23:47;;;;;;;;;;;6.60;99.90;;;;;;5013167;28;20366;-71
2022/12/24 12:26:18;;;;;;;;;;;6.60;99.90;;;;;;5014797;28;19917;-71
2022/12/24 12:29:19;;;;;;;;;;;6.60;99.90;;;;;;5012950;28;19960;-71
2022/12/24 12:31:49;;;;;;;;;;;6.70;99.90;;;;;;5012497;28;19920;-71
2022/12/24 12:34:15;;;;;;;;;;;6.70;99.90;;;;;;5014062;28;19917;-71
2022/12/24 12:36:44;;;;;;;;;;;6.70;99.90;;;;;;5014853;28;20357;-71
2022/12/24 12:39:10;;;;;;;;;;;6.70;99.90;;;;;;5014563;28;20376;-71
2022/12/24 12:41:54;;;;;;;;;;;6.80;99.90;;;;;;5014331;28;20365;-71
2022/12/24 12:44:19;;;;;;;;;;;6.80;99.90;;;;;;5014793;28;19909;-71
2022/12/24 12:46:47;;;;;;;;;;;6.90;99.90;;;;;;5014743;28;19963;-70
2022/12/24 12:49:22;;;;;;;;;;;6.90;99.90;;;;;;5025881;28;20008;-70
2022/12/24 12:52:06;;;;;;;;;;;6.90;99.90;;;;;;5032271;28;19924;-71
2022/12/24 12:54:35;;;;;;;;;;;6.90;99.90;;;;;;5016182;28;19939;-71
2022/12/24 12:57:04;;;;;;;;;;;6.90;99.90;;;;;;5012288;28;19909;-70
2022/12/24 12:59:33;;;;;;;;;;;6.90;99.90;;;;;;5012130;28;19916;-70
2022/12/24 13:02:17;;;;;;;;;;;6.90;99.90;;;;;;5012611;28;19962;-71
2022/12/24 13:05:04;;;;;;;;;;;6.90;99.90;;;;;;5012886;28;19956;-71
2022/12/24 13:07:30;;;;;;;;;;;6.90;99.90;;;;;;5013225;28;19941;-71
2022/12/24 13:09:58;;;;;;;;;;;6.90;99.90;;;;;;5013894;28;19953;-71
2022/12/24 13:12:34;;;;;;;;;;;7.00;99.90;;;;;;5013902;28;20000;-71
2022/12/24 13:15:03;;;;;;;;;;;7.00;99.90;;;;;;5014221;28;19910;-71
2022/12/24 13:17:37;;;;;;;;;;;7.00;99.90;;;;;;5013799;28;19909;-71
2022/12/24 13:20:18;;;;;;;;;;;7.00;99.90;;;;;;5014397;28;19916;-71
2022/12/24 13:22:53;;;;;;;;;;;7.00;99.90;;;;;;5015890;28;19916;-71
2022/12/24 13:25:20;;;;;;;;;;;7.00;99.90;;;;;;5017735;28;19953;-71
2022/12/24 13:27:45;;;;;;;;;;;7.00;99.90;;;;;;5017909;28;19968;-71
2022/12/24 13:30:31;;;;;;;;;;;7.00;99.90;;;;;;5016936;28;19921;-71
2022/12/24 13:32:57;;;;;;;;;;;7.00;99.90;;;;;;5029013;28;19913;-71
2022/12/24 13:35:23;;;;;;;;;;;7.00;99.90;;;;;;5017854;28;19914;-71
2022/12/24 13:37:49;;;;;;;;;;;7.00;99.90;;;;;;5016239;28;19963;-71
2022/12/24 13:40:22;;;;;;;;;;;7.00;99.90;;;;;;5017195;28;19921;-71
2022/12/24 13:42:47;;;;;;;;;;;7.00;99.90;;;;;;5017392;28;19921;-71
2022/12/24 13:45:28;;;;;;;;;;;7.00;99.90;;;;;;5017351;28;19910;-71
2022/12/24 13:48:14;;;;;;;;;;;7.00;99.90;;;;;;5017837;28;19961;-71
2022/12/24 13:50:43;;;;;;;;;;;7.00;99.90;;;;;;5016542;28;20373;-71
2022/12/24 13:53:35;;;;;;;;;;;7.00;99.90;;;;;;5017273;28;19925;-71
2022/12/24 13:56:13;;;;;;;;;;;7.00;99.90;;;;;;5016816;28;19961;-71
2022/12/24 13:58:40;;;;;;;;;;;7.00;99.90;;;;;;5016869;28;19909;-70
2022/12/24 14:01:10;;;;;;;;;;;6.90;99.90;;;;;;5017351;28;19913;-71
2022/12/24 14:03:36;;;;;;;;;;;7.00;99.90;;;;;;5017256;28;19914;-71
2022/12/24 14:06:05;;;;;;;;;;;6.90;99.90;;;;;;5017112;28;19956;-71
2022/12/24 14:08:37;;;;;;;;;;;7.00;99.90;;;;;;5016083;28;20269;-71
2022/12/24 14:11:03;;;;;;;;;;;7.00;99.90;;;;;;5016871;28;19910;-71
2022/12/24 14:13:37;;;;;;;;;;;7.00;99.90;;;;;;5016830;28;19909;-71
2022/12/24 14:16:04;;;;;;;;;;;7.00;99.90;;;;;;5016752;28;19910;-71
2022/12/24 14:18:39;;;;;;;;;;;7.00;99.90;;;;;;5016665;28;19910;-71
2022/12/24 14:21:06;;;;;;;;;;;7.00;99.90;;;;;;5017253;28;19918;-71
2022/12/24 14:23:50;;;;;;;;;;;7.00;99.90;;;;;;5016953;28;19910;-71
2022/12/24 14:26:17;;;;;;;;;;;7.00;99.90;;;;;;5016522;28;19913;-71
2022/12/24 14:28:45;;;;;;;;;;;6.90;99.90;;;;;;5016480;28;19910;-71
2022/12/24 14:31:15;;;;;;;;;;;6.90;99.90;;;;;;5016668;28;19910;-71
2022/12/24 14:33:41;;;;;;;;;;;6.90;99.90;;;;;;5015331;28;19999;-71
2022/12/24 14:36:08;;;;;;;;;;;6.80;99.90;;;;;;5016701;28;20010;-70
2022/12/24 14:38:33;;;;;;;;;;;6.80;99.90;;;;;;5016376;28;19961;-70
2022/12/24 14:41:03;;;;;;;;;;;6.80;99.90;;;;;;5016298;28;19914;-70
2022/12/24 14:43:28;;;;;;;;;;;6.80;99.90;;;;;;5016291;28;20404;-70
2022/12/24 14:46:03;;;;;;;;;;;6.80;99.90;;;;;;5014888;28;19913;-70
2022/12/24 14:48:34;;;;;;;;;;;6.70;99.90;;;;;;5016236;28;19910;-71